createdAt,value
2017-12-14T00:02:20.691Z,98.50
2017-12-14T00:04:48.171Z,98.00
2017-12-14T00:07:15.651Z,97.90
2017-12-14T00:09:43.105Z,97.50
2017-12-14T00:12:10.585Z,97.60
2017-12-14T00:14:38.855Z,99.80
2017-12-14T00:17:07.064Z,99.90
2017-12-14T00:19:34.525Z,99.90
2017-12-14T00:22:01.982Z,99.90
2017-12-14T00:24:28.955Z,99.90
2017-12-14T00:26:56.458Z,99.90
2017-12-14T00:29:23.925Z,99.90
2017-12-14T00:31:51.398Z,99.90
2017-12-14T00:34:18.866Z,99.90
2017-12-14T00:36:46.311Z,99.90
2017-12-14T00:39:13.771Z,99.90
2017-12-14T00:41:41.250Z,99.90
2017-12-14T00:44:08.699Z,99.90
2017-12-14T00:46:36.150Z,99.90
2017-12-14T00:49:03.630Z,99.90
2017-12-14T00:51:31.861Z,99.90
2017-12-14T00:53:59.346Z,99.90
2017-12-14T00:56:26.864Z,99.90
2017-12-14T00:58:55.811Z,99.90
2017-12-14T01:01:23.285Z,99.90
2017-12-14T01:03:51.509Z,99.90
2017-12-14T01:06:18.959Z,99.90
2017-12-14T01:08:46.436Z,99.90
2017-12-14T01:11:13.886Z,99.90
2017-12-14T01:13:41.352Z,99.90
2017-12-14T01:16:08.824Z,99.90
2017-12-14T01:18:36.387Z,99.90
2017-12-14T01:21:04.639Z,99.90
2017-12-14T01:23:32.114Z,99.90
2017-12-14T01:25:59.559Z,99.90
2017-12-14T01:28:28.536Z,99.90
2017-12-14T01:30:56.019Z,99.90
2017-12-14T01:33:23.520Z,99.90
2017-12-14T01:35:50.959Z,99.90
2017-12-14T01:38:18.407Z,99.90
2017-12-14T01:40:45.893Z,99.90
2017-12-14T01:43:13.403Z,99.90
2017-12-14T01:45:41.611Z,99.90
2017-12-14T01:48:09.088Z,99.90
2017-12-14T01:50:36.582Z,99.90
2017-12-14T01:53:04.037Z,99.90
2017-12-14T01:55:31.507Z,99.90
2017-12-14T01:57:59.720Z,99.90
2017-12-14T02:00:27.192Z,99.90
2017-12-14T02:02:54.648Z,99.90
2017-12-14T02:05:22.100Z,99.90
2017-12-14T02:07:49.694Z,99.90
2017-12-14T02:10:17.233Z,99.90
2017-12-14T02:12:44.684Z,99.90
2017-12-14T02:15:12.169Z,99.90
2017-12-14T02:17:40.407Z,99.90
2017-12-14T02:20:07.861Z,99.90
2017-12-14T02:22:35.342Z,99.90
2017-12-14T02:25:03.622Z,99.90
2017-12-14T02:27:31.091Z,99.90
2017-12-14T02:29:59.304Z,99.90
2017-12-14T02:32:26.767Z,99.90
2017-12-14T02:34:54.226Z,99.90
2017-12-14T02:37:21.757Z,99.90
2017-12-14T02:39:49.277Z,99.90
2017-12-14T02:42:16.835Z,99.90
2017-12-14T02:44:44.294Z,99.90
2017-12-14T02:47:12.553Z,99.90
2017-12-14T02:49:40.767Z,99.90
2017-12-14T02:52:08.214Z,99.90
2017-12-14T02:54:35.699Z,99.90
2017-12-14T02:57:03.152Z,99.90
2017-12-14T02:59:30.622Z,99.90
2017-12-14T03:01:58.105Z,99.90
2017-12-14T03:04:27.067Z,99.90
2017-12-14T03:06:54.567Z,99.90
2017-12-14T03:09:22.793Z,99.90
2017-12-14T03:11:50.264Z,99.90
2017-12-14T03:14:17.887Z,99.90
2017-12-14T03:16:46.069Z,99.90
2017-12-14T03:19:13.573Z,99.90
2017-12-14T03:21:41.133Z,99.90
2017-12-14T03:24:08.571Z,99.90
2017-12-14T03:26:36.819Z,99.90
2017-12-14T03:29:04.305Z,99.90
2017-12-14T03:31:32.521Z,99.90
2017-12-14T03:33:59.994Z,99.90
2017-12-14T03:36:27.482Z,99.90
2017-12-14T03:38:54.970Z,99.90
2017-12-14T03:41:23.202Z,99.90
2017-12-14T03:43:50.676Z,99.90
2017-12-14T03:46:18.180Z,99.90
2017-12-14T03:48:45.650Z,99.90
2017-12-14T03:51:13.120Z,99.90
2017-12-14T03:53:40.569Z,99.90
2017-12-14T03:56:08.069Z,99.90
2017-12-14T03:58:36.426Z,99.90
2017-12-14T04:01:03.886Z,99.90
2017-12-14T04:03:31.341Z,99.90
2017-12-14T04:05:58.960Z,99.90
2017-12-14T04:08:26.413Z,99.90
2017-12-14T04:10:53.877Z,99.90
2017-12-14T04:13:21.353Z,99.90
2017-12-14T04:15:48.813Z,99.90
2017-12-14T04:18:16.269Z,99.90
2017-12-14T04:20:43.750Z,99.90
2017-12-14T04:23:11.215Z,99.90
2017-12-14T04:25:39.447Z,99.90
2017-12-14T04:28:06.928Z,99.90
2017-12-14T04:30:35.359Z,99.90
2017-12-14T04:33:02.874Z,99.90
2017-12-14T04:35:30.494Z,99.90
2017-12-14T04:37:57.941Z,99.90
2017-12-14T04:40:25.411Z,99.90
2017-12-14T04:42:52.851Z,99.90
2017-12-14T04:45:20.324Z,99.90
2017-12-14T04:47:47.853Z,99.90
2017-12-14T04:50:15.302Z,99.90
2017-12-14T04:52:42.782Z,99.90
2017-12-14T04:55:10.237Z,99.90
2017-12-14T04:57:37.746Z,99.90
2017-12-14T05:00:06.055Z,99.90
2017-12-14T05:02:33.610Z,99.90
2017-12-14T05:05:01.068Z,99.90
2017-12-14T05:07:28.519Z,99.90
2017-12-14T05:09:55.989Z,99.90
2017-12-14T05:12:23.444Z,99.90
2017-12-14T05:14:50.932Z,99.90
2017-12-14T05:17:19.897Z,99.90
2017-12-14T05:19:47.358Z,99.90
2017-12-14T05:22:14.845Z,99.90
2017-12-14T05:24:42.315Z,99.90
2017-12-14T05:27:10.553Z,99.90
2017-12-14T05:29:38.025Z,99.90
2017-12-14T05:32:05.481Z,99.90
2017-12-14T05:34:33.050Z,99.90
2017-12-14T05:37:01.326Z,99.90
2017-12-14T05:39:28.871Z,99.90
2017-12-14T05:41:57.102Z,99.90
2017-12-14T05:44:24.593Z,99.90
2017-12-14T05:46:52.056Z,99.90
2017-12-14T05:49:19.517Z,99.90
2017-12-14T05:51:46.989Z,99.90
2017-12-14T05:54:15.235Z,99.90
2017-12-14T05:56:43.443Z,99.90
2017-12-14T05:59:10.922Z,99.90
2017-12-14T06:01:38.401Z,99.90
2017-12-14T06:04:05.935Z,99.90
2017-12-14T06:06:33.380Z,99.90
2017-12-14T06:09:00.909Z,99.90
2017-12-14T06:11:29.133Z,99.90
2017-12-14T06:13:56.604Z,99.90
2017-12-14T06:16:24.061Z,99.90
2017-12-14T06:18:51.548Z,99.90
2017-12-14T06:21:19.014Z,99.90
2017-12-14T06:23:47.258Z,99.90
2017-12-14T06:26:14.751Z,99.90
2017-12-14T06:28:42.983Z,99.90
2017-12-14T06:31:10.438Z,99.90
2017-12-14T06:33:37.927Z,99.90
2017-12-14T06:36:06.153Z,99.90
2017-12-14T06:38:33.594Z,99.90
2017-12-14T06:41:01.091Z,99.90
2017-12-14T06:43:30.052Z,99.90
2017-12-14T06:45:57.517Z,99.90
2017-12-14T06:48:25.119Z,99.90
2017-12-14T06:50:53.336Z,99.90
2017-12-14T06:53:20.797Z,99.90
2017-12-14T06:55:48.290Z,99.90
2017-12-14T06:58:16.526Z,99.90
2017-12-14T07:00:44.065Z,99.90
2017-12-14T07:03:23.330Z,99.90
2017-12-14T07:05:51.423Z,99.90
2017-12-14T07:08:19.405Z,99.90
2017-12-14T07:10:47.642Z,99.90
2017-12-14T07:13:15.113Z,99.90
2017-12-14T07:15:42.601Z,99.90
2017-12-14T07:18:10.825Z,99.90
2017-12-14T07:20:38.301Z,99.90
2017-12-14T07:23:05.801Z,99.90
2017-12-14T07:25:33.264Z,99.90
2017-12-14T07:28:00.822Z,99.90
2017-12-14T07:30:28.344Z,99.90
2017-12-14T07:32:56.614Z,99.90
2017-12-14T07:35:24.877Z,99.90
2017-12-14T07:37:54.248Z,99.90
2017-12-14T07:40:21.842Z,99.90
2017-12-14T07:43:01.959Z,99.90
2017-12-14T07:48:34.695Z,99.90
2017-12-14T07:51:02.161Z,99.90
2017-12-14T07:53:30.407Z,99.90
2017-12-14T07:55:57.891Z,99.90
2017-12-14T07:58:26.151Z,99.90
2017-12-14T08:00:55.008Z,99.90
2017-12-14T08:03:22.472Z,99.90
2017-12-14T08:05:50.053Z,99.90
2017-12-14T08:08:17.657Z,99.90
2017-12-14T08:10:45.434Z,99.90
2017-12-14T08:13:12.899Z,99.90
2017-12-14T08:15:40.385Z,99.90
2017-12-14T08:18:07.848Z,99.90
2017-12-14T08:20:36.112Z,99.90
2017-12-14T08:23:04.337Z,99.90
2017-12-14T08:25:31.796Z,99.90
2017-12-14T08:27:59.260Z,99.90
2017-12-14T08:30:26.703Z,99.90
2017-12-14T08:32:54.192Z,99.90
2017-12-14T08:35:21.662Z,99.90
2017-12-14T08:37:49.122Z,99.90
2017-12-14T08:40:16.632Z,99.90
2017-12-14T08:42:44.096Z,99.90
2017-12-14T08:45:11.577Z,99.90
2017-12-14T08:47:39.024Z,99.90
2017-12-14T08:50:06.484Z,99.90
2017-12-14T08:52:33.961Z,99.90
2017-12-14T08:55:01.423Z,99.90
2017-12-14T08:57:29.677Z,99.90
2017-12-14T08:59:57.229Z,99.90
2017-12-14T09:02:24.685Z,99.90
2017-12-14T09:04:52.164Z,99.90
2017-12-14T09:07:20.375Z,99.90
2017-12-14T09:09:47.837Z,99.90
2017-12-14T09:12:15.315Z,99.90
2017-12-14T09:14:42.772Z,99.90
2017-12-14T09:17:10.229Z,99.90
2017-12-14T09:19:37.738Z,99.90
2017-12-14T09:22:05.973Z,99.90
2017-12-14T09:24:33.449Z,99.90
2017-12-14T09:27:01.713Z,99.90
2017-12-14T09:29:29.964Z,99.90
2017-12-14T09:31:57.448Z,99.90
2017-12-14T09:34:24.887Z,99.90
2017-12-14T09:36:52.763Z,99.90
2017-12-14T09:39:21.029Z,99.90
2017-12-14T09:41:49.263Z,99.90
2017-12-14T09:44:16.730Z,99.90
2017-12-14T09:46:44.196Z,99.90
2017-12-14T09:49:11.689Z,99.90
2017-12-14T09:51:39.918Z,99.90
2017-12-14T09:54:07.380Z,99.90
2017-12-14T09:56:34.858Z,99.90
2017-12-14T09:59:02.396Z,99.90
2017-12-14T10:01:29.846Z,99.90
2017-12-14T10:03:57.323Z,99.90
2017-12-14T10:06:24.759Z,99.90
2017-12-14T10:08:52.216Z,99.90
2017-12-14T10:11:19.705Z,99.90
2017-12-14T10:13:47.161Z,99.90
2017-12-14T10:16:14.623Z,99.90
2017-12-14T10:18:42.861Z,99.90
2017-12-14T10:21:10.378Z,99.90
2017-12-14T10:23:37.883Z,99.90
2017-12-14T10:26:05.438Z,99.90
2017-12-14T10:28:32.919Z,99.90
2017-12-14T10:31:01.138Z,99.90
2017-12-14T10:33:28.581Z,99.90
2017-12-14T10:35:56.075Z,99.90
2017-12-14T10:38:23.549Z,99.90
2017-12-14T10:40:52.529Z,99.90
2017-12-14T10:43:20.031Z,99.90
2017-12-14T10:45:47.523Z,99.90
2017-12-14T10:48:15.030Z,99.90
2017-12-14T10:50:43.297Z,99.90
2017-12-14T10:53:11.524Z,99.90
2017-12-14T10:55:38.984Z,99.90
2017-12-14T10:58:06.575Z,99.90
2017-12-14T11:00:39.720Z,99.20
2017-12-14T11:03:07.193Z,98.30
2017-12-14T11:05:34.730Z,96.60
2017-12-14T11:08:02.995Z,98.00
2017-12-14T11:10:30.453Z,98.00
2017-12-14T11:12:57.972Z,97.90
2017-12-14T11:15:26.350Z,98.20
2017-12-14T11:17:54.579Z,99.90
2017-12-14T11:20:22.031Z,99.90
2017-12-14T11:22:49.517Z,99.90
2017-12-14T11:25:17.772Z,97.70
2017-12-14T11:27:45.243Z,97.60
2017-12-14T11:30:12.698Z,97.90
2017-12-14T11:32:41.672Z,97.00
2017-12-14T11:35:09.123Z,97.00
2017-12-14T11:37:36.621Z,97.10
2017-12-14T11:40:04.121Z,97.60
2017-12-14T11:42:31.576Z,98.50
2017-12-14T11:44:59.055Z,98.20
2017-12-14T11:47:26.629Z,98.90
2017-12-14T11:49:54.852Z,98.70
2017-12-14T11:52:22.373Z,98.70
2017-12-14T11:54:49.861Z,99.30
2017-12-14T11:57:17.336Z,99.10
2017-12-14T11:59:44.808Z,99.80
2017-12-14T12:02:12.285Z,98.80
2017-12-14T12:04:40.027Z,97.80
2017-12-14T12:07:07.487Z,97.20
2017-12-14T12:09:34.980Z,96.20
2017-12-14T12:12:03.231Z,95.70
2017-12-14T12:14:30.676Z,95.60
2017-12-14T12:16:58.127Z,95.80
2017-12-14T12:19:25.608Z,95.80
2017-12-14T12:21:53.066Z,96.00
2017-12-14T12:24:20.622Z,96.00
2017-12-14T12:26:48.164Z,96.70
2017-12-14T12:29:15.622Z,96.50
2017-12-14T12:31:43.073Z,96.50
2017-12-14T12:34:10.545Z,96.70
2017-12-14T12:36:38.013Z,96.50
2017-12-14T12:39:06.279Z,97.60
2017-12-14T12:41:33.709Z,97.70
2017-12-14T12:44:01.180Z,97.70
2017-12-14T12:46:28.655Z,98.20
2017-12-14T12:48:56.889Z,98.60
2017-12-14T12:51:24.358Z,98.60
2017-12-14T12:53:51.936Z,98.80
2017-12-14T12:56:19.486Z,99.10
2017-12-14T12:58:46.971Z,99.90
2017-12-14T13:01:14.491Z,99.90
2017-12-14T13:03:42.823Z,99.90
2017-12-14T13:06:10.297Z,99.90
2017-12-14T13:08:37.760Z,99.90
2017-12-14T13:11:05.253Z,99.90
2017-12-14T13:13:32.711Z,99.90
2017-12-14T13:16:01.005Z,99.90
2017-12-14T13:18:28.480Z,99.90
2017-12-14T13:20:55.964Z,99.90
2017-12-14T13:23:23.441Z,99.90
2017-12-14T13:25:51.676Z,99.90
2017-12-14T13:28:19.151Z,99.90
2017-12-14T13:30:46.630Z,99.90
2017-12-14T13:33:14.085Z,99.90
2017-12-14T13:35:41.527Z,99.90
2017-12-14T13:38:10.499Z,99.90
2017-12-14T13:40:37.971Z,99.90
2017-12-14T13:43:06.976Z,99.90
2017-12-14T13:45:34.422Z,99.90
2017-12-14T13:48:02.630Z,99.90
2017-12-14T13:50:30.121Z,99.90
2017-12-14T13:52:57.607Z,99.90
2017-12-14T13:55:25.074Z,99.90
2017-12-14T13:57:52.637Z,99.90
2017-12-14T14:00:20.093Z,99.90
2017-12-14T14:02:47.563Z,99.90
2017-12-14T14:05:15.812Z,99.90
2017-12-14T14:07:44.763Z,99.90
2017-12-14T14:10:12.219Z,99.90
2017-12-14T14:12:39.781Z,99.90
2017-12-14T14:15:07.222Z,99.90
2017-12-14T14:17:34.675Z,99.90
2017-12-14T14:20:02.144Z,99.90
2017-12-14T14:22:29.594Z,99.90
2017-12-14T14:24:57.038Z,99.90
2017-12-14T14:27:24.520Z,99.90
2017-12-14T14:29:51.986Z,99.90
2017-12-14T14:32:19.615Z,99.90
2017-12-14T14:34:47.076Z,99.90
2017-12-14T14:37:14.539Z,99.90
2017-12-14T14:39:42.006Z,99.90
2017-12-14T14:42:09.447Z,99.90
2017-12-14T14:44:36.906Z,99.90
2017-12-14T14:47:04.391Z,99.90
2017-12-14T14:49:31.871Z,99.90
2017-12-14T14:52:00.079Z,99.90
2017-12-14T14:54:27.534Z,99.90
2017-12-14T14:56:55.097Z,99.90
2017-12-14T14:59:22.592Z,99.90
2017-12-14T15:01:51.574Z,99.90
2017-12-14T15:04:19.061Z,99.90
2017-12-14T15:06:47.544Z,99.90
2017-12-14T15:09:15.767Z,99.90
2017-12-14T15:11:43.239Z,99.90
2017-12-14T15:14:10.687Z,99.90
2017-12-14T15:16:38.158Z,99.90
2017-12-14T15:19:05.608Z,99.90
2017-12-14T15:21:34.571Z,99.90
2017-12-14T15:24:02.046Z,99.90
2017-12-14T15:26:29.505Z,99.90
2017-12-14T15:28:56.999Z,98.80
2017-12-14T15:31:25.242Z,99.90
2017-12-14T15:33:54.213Z,99.90
2017-12-14T15:36:21.655Z,99.90
2017-12-14T15:38:49.129Z,99.90
2017-12-14T15:41:16.646Z,99.90
2017-12-14T15:43:44.161Z,99.90
2017-12-14T15:46:11.662Z,99.90
2017-12-14T15:48:39.170Z,99.90
2017-12-14T15:51:08.166Z,99.90
2017-12-14T15:53:35.675Z,99.90
2017-12-14T15:56:03.181Z,99.90
2017-12-14T15:58:30.744Z,99.60
2017-12-14T16:00:59.070Z,99.60
2017-12-14T16:03:26.521Z,99.60
2017-12-14T16:05:53.993Z,99.30
2017-12-14T16:08:21.471Z,99.60
2017-12-14T16:10:48.984Z,99.50
2017-12-14T16:13:16.564Z,99.40
2017-12-14T16:15:44.544Z,99.70
2017-12-14T16:18:12.032Z,99.60
2017-12-14T16:20:39.629Z,99.60
2017-12-14T16:23:07.100Z,99.60
2017-12-14T16:25:34.610Z,99.50
2017-12-14T16:28:02.061Z,99.70
2017-12-14T16:30:29.533Z,99.60
2017-12-14T16:32:57.738Z,99.90
2017-12-14T16:35:25.221Z,99.90
2017-12-14T16:37:52.679Z,99.90
2017-12-14T16:40:20.900Z,99.90
2017-12-14T16:42:48.376Z,99.90
2017-12-14T16:45:15.885Z,99.90
2017-12-14T16:47:43.350Z,99.90
2017-12-14T16:50:11.577Z,99.90
2017-12-14T16:52:39.037Z,99.90
2017-12-14T16:55:06.526Z,99.90
2017-12-14T16:57:33.981Z,99.90
2017-12-14T17:00:01.450Z,99.90
2017-12-14T17:02:29.715Z,99.90
2017-12-14T17:04:57.256Z,99.90
2017-12-14T17:07:25.485Z,99.90
2017-12-14T17:09:52.970Z,99.90
2017-12-14T17:12:20.455Z,99.90
2017-12-14T17:14:48.661Z,99.90
2017-12-14T17:17:16.134Z,99.90
2017-12-14T17:19:43.653Z,99.90
2017-12-14T17:22:12.321Z,99.90
2017-12-14T17:24:41.405Z,99.90
2017-12-14T17:27:08.984Z,99.90
2017-12-14T17:29:37.205Z,99.90
2017-12-14T17:32:04.681Z,99.90
2017-12-14T17:34:32.154Z,99.90
2017-12-14T17:36:59.613Z,99.90
2017-12-14T17:39:27.161Z,99.90
2017-12-14T17:41:54.603Z,99.90
2017-12-14T17:44:22.199Z,99.90
2017-12-14T17:46:50.435Z,99.90
2017-12-14T17:49:17.889Z,99.90
2017-12-14T17:51:45.378Z,99.90
2017-12-14T17:54:13.600Z,99.90
2017-12-14T17:56:41.116Z,99.90
2017-12-14T17:59:11.535Z,99.90
2017-12-14T18:01:40.509Z,99.90
2017-12-14T18:04:08.074Z,99.90
2017-12-14T18:06:37.059Z,99.90
2017-12-14T18:09:15.652Z,99.90
2017-12-14T18:11:43.644Z,99.90
2017-12-14T18:14:12.892Z,99.90
2017-12-14T18:16:42.699Z,99.90
2017-12-14T18:19:11.604Z,99.90
2017-12-14T18:21:39.099Z,99.90
2017-12-14T18:24:06.663Z,99.90
2017-12-14T18:26:34.881Z,99.90
2017-12-14T18:29:02.339Z,99.90
2017-12-14T18:31:29.808Z,99.90
2017-12-14T18:33:57.291Z,99.90
2017-12-14T18:36:25.549Z,99.90
2017-12-14T18:38:53.065Z,99.90
2017-12-14T18:41:20.570Z,99.90
2017-12-14T18:43:48.789Z,99.90
2017-12-14T18:46:16.258Z,99.90
2017-12-14T18:48:43.733Z,99.90
2017-12-14T18:51:11.194Z,99.90
2017-12-14T18:53:38.674Z,99.90
2017-12-14T18:56:06.159Z,99.90
2017-12-14T18:58:33.649Z,99.90
2017-12-14T19:03:54.674Z,99.90
2017-12-14T19:06:22.163Z,99.90
2017-12-14T19:08:50.152Z,99.90
2017-12-14T19:13:53.519Z,99.90
2017-12-14T19:16:21.688Z,99.90
2017-12-14T19:18:49.159Z,99.90
2017-12-14T19:21:16.623Z,99.90
2017-12-14T19:23:44.886Z,99.90
2017-12-14T19:26:12.369Z,99.90
2017-12-14T19:28:40.592Z,99.90
2017-12-14T19:31:08.084Z,99.90
2017-12-14T19:33:35.558Z,99.90
2017-12-14T19:36:03.793Z,99.90
2017-12-14T19:38:31.253Z,99.90
2017-12-14T19:40:58.794Z,99.90
2017-12-14T19:43:26.285Z,99.90
2017-12-14T19:45:53.794Z,99.90
2017-12-14T19:48:21.296Z,99.90
2017-12-14T19:50:48.763Z,99.90
2017-12-14T19:53:17.028Z,99.90
2017-12-14T19:55:44.483Z,99.90
2017-12-14T19:58:11.951Z,99.90
2017-12-14T20:00:40.214Z,99.90
2017-12-14T20:03:07.669Z,99.90
2017-12-14T20:05:35.122Z,99.90
2017-12-14T20:08:02.603Z,99.90
2017-12-14T20:10:30.838Z,99.90
2017-12-14T20:12:58.360Z,99.90
2017-12-14T20:15:25.871Z,99.90
2017-12-14T20:17:53.316Z,99.90
2017-12-14T20:20:20.886Z,99.90
2017-12-14T20:22:48.366Z,99.90
2017-12-14T20:25:15.883Z,99.90
2017-12-14T20:27:43.339Z,99.90
2017-12-14T20:30:10.813Z,99.90
2017-12-14T20:32:39.120Z,99.90
2017-12-14T20:35:06.670Z,99.90
2017-12-14T20:37:34.206Z,99.90
2017-12-14T20:40:02.430Z,99.90
2017-12-14T20:42:29.899Z,99.90
2017-12-14T20:44:57.370Z,99.90
2017-12-14T20:47:24.850Z,99.90
2017-12-14T20:49:53.096Z,99.90
2017-12-14T20:52:20.555Z,99.90
2017-12-14T20:54:48.011Z,99.90
2017-12-14T20:57:15.485Z,99.90
2017-12-14T20:59:43.758Z,99.90
2017-12-14T21:02:11.246Z,99.90
2017-12-14T21:04:38.775Z,99.90
2017-12-14T21:07:16.969Z,99.90
2017-12-14T21:09:44.407Z,99.90
2017-12-14T21:12:11.901Z,99.90
2017-12-14T21:14:40.128Z,99.90
2017-12-14T21:17:07.643Z,99.90
2017-12-14T21:19:35.105Z,99.90
2017-12-14T21:22:02.571Z,99.90
2017-12-14T21:24:30.040Z,99.90
2017-12-14T21:26:57.539Z,99.90
2017-12-14T21:29:24.997Z,99.90
2017-12-14T21:31:53.241Z,99.90
2017-12-14T21:34:20.886Z,99.90
2017-12-14T21:36:48.428Z,99.90
2017-12-14T21:39:15.905Z,99.90
2017-12-14T21:41:43.404Z,99.90
2017-12-14T21:44:11.653Z,99.90
2017-12-14T21:46:39.162Z,99.90
2017-12-14T21:49:06.641Z,99.90
2017-12-14T21:51:34.140Z,99.90
2017-12-14T21:54:01.703Z,99.90
2017-12-14T21:56:29.253Z,99.90
2017-12-14T21:58:56.801Z,99.90
2017-12-14T22:01:24.287Z,99.90
2017-12-14T22:03:52.504Z,99.90
2017-12-14T22:06:20.024Z,99.90
2017-12-14T22:08:47.467Z,99.90
2017-12-14T22:11:15.688Z,99.90
2017-12-14T22:13:43.185Z,99.90
2017-12-14T22:16:10.640Z,99.90
2017-12-14T22:18:38.140Z,99.90
2017-12-14T22:21:05.637Z,99.90
2017-12-14T22:23:33.088Z,99.90
2017-12-14T22:26:00.681Z,99.90
2017-12-14T22:28:28.887Z,99.90
2017-12-14T22:30:56.349Z,99.90
2017-12-14T22:33:23.804Z,99.90
2017-12-14T22:35:51.297Z,99.90
2017-12-14T22:38:18.865Z,99.90
2017-12-14T22:40:46.353Z,99.90
2017-12-14T22:43:13.820Z,99.90
2017-12-14T22:45:41.280Z,99.90
2017-12-14T22:48:08.743Z,99.90
2017-12-14T22:50:36.222Z,99.90
2017-12-14T22:53:03.683Z,99.90
2017-12-14T22:55:31.167Z,99.90
2017-12-14T22:57:59.407Z,99.90
2017-12-14T23:00:26.885Z,99.90
2017-12-14T23:02:54.423Z,99.90
2017-12-14T23:05:21.896Z,99.90
2017-12-14T23:07:49.370Z,99.90
2017-12-14T23:10:17.628Z,99.90
2017-12-14T23:12:45.086Z,99.90
2017-12-14T23:15:12.555Z,99.90
2017-12-14T23:17:40.821Z,99.90
2017-12-14T23:20:08.289Z,99.90
2017-12-14T23:22:36.530Z,99.90
2017-12-14T23:25:04.101Z,99.90
2017-12-14T23:27:31.569Z,99.90
2017-12-14T23:29:59.793Z,99.90
2017-12-14T23:32:27.265Z,99.90
2017-12-14T23:34:54.721Z,99.90
2017-12-14T23:37:22.254Z,99.90
2017-12-14T23:39:49.755Z,99.90
2017-12-14T23:42:17.313Z,99.90
2017-12-14T23:44:44.778Z,99.90
2017-12-14T23:47:13.048Z,99.90
2017-12-14T23:49:40.673Z,99.90
2017-12-14T23:52:08.132Z,99.90
2017-12-14T23:54:35.615Z,99.90
2017-12-14T23:57:03.121Z,99.90
2017-12-14T23:59:30.647Z,99.90
